Time;durP1;ratioP1;P1;durP2;ratioP2;P2;SDS_P1;SDS_P2;PMS_P1;PMS_P2;Temp;Humidity;BMP_temperature;BMP_pressure;BME280_temperature;BME280_humidity;BME280_pressure;Samples;Min_cycle;Max_cycle;Signal;HPM_P1;HPM_P2
2022/10/02 00:01:59;;;;;;;14.02;3.30;;;12.20;99.90;;;;;;5025177;28;20043;-63
2022/10/02 00:04:31;;;;;;;15.85;3.40;;;12.20;99.90;;;;;;5015460;28;20395;-63
2022/10/02 00:07:02;;;;;;;15.02;3.42;;;12.20;99.90;;;;;;5035081;28;20405;-62
2022/10/02 00:09:43;;;;;;;9.65;2.60;;;12.20;99.90;;;;;;5021043;28;20052;-62
2022/10/02 00:12:13;;;;;;;11.68;2.83;;;12.20;99.90;;;;;;5012017;28;20046;-64
2022/10/02 00:14:41;;;;;;;13.15;3.33;;;12.20;99.90;;;;;;5029221;28;20045;-61
2022/10/02 00:17:21;;;;;;;12.73;3.90;;;12.10;99.90;;;;;;5034873;28;20045;-62
2022/10/02 00:19:51;;;;;;;12.95;3.05;;;12.10;99.90;;;;;;5031807;28;20048;-62
2022/10/02 00:22:35;;;;;;;8.90;2.85;;;12.10;99.90;;;;;;5033488;28;20052;-61
2022/10/02 00:25:47;;;;;;;11.30;2.70;;;12.10;99.90;;;;;;5027370;28;20049;-62
2022/10/02 00:28:18;;;;;;;13.07;3.00;;;12.10;99.90;;;;;;5010185;28;20049;-63
2022/10/02 00:31:04;;;;;;;10.27;2.97;;;12.00;99.90;;;;;;5015132;28;20037;-64
2022/10/02 00:33:49;;;;;;;9.88;3.03;;;12.00;99.90;;;;;;5016721;28;20034;-65
2022/10/02 00:36:50;;;;;;;10.18;2.60;;;12.00;99.90;;;;;;5034298;28;20045;-62
2022/10/02 00:39:35;;;;;;;8.80;2.70;;;12.00;99.90;;;;;;5024918;28;20053;-62
2022/10/02 00:42:16;;;;;;;8.45;2.60;;;12.00;99.90;;;;;;5014272;28;20053;-64
2022/10/02 00:45:14;;;;;;;13.37;2.60;;;11.90;99.90;;;;;;5019199;28;20497;-61
2022/10/02 00:47:48;;;;;;;12.10;2.67;;;11.90;99.90;;;;;;5031107;28;20095;-62
2022/10/02 00:50:45;;;;;;;10.27;2.50;;;11.90;99.90;;;;;;5030365;28;20044;-61
2022/10/02 00:53:26;;;;;;;9.13;2.55;;;11.90;99.90;;;;;;5030220;28;20490;-63
2022/10/02 00:56:10;;;;;;;11.95;2.85;;;11.90;99.90;;;;;;5003594;28;20041;-62
2022/10/02 00:58:43;;;;;;;9.93;2.95;;;11.90;99.90;;;;;;5023054;28;20029;-62
2022/10/02 01:01:18;;;;;;;8.50;2.30;;;11.90;99.90;;;;;;5031404;28;20049;-64
2022/10/02 01:03:55;;;;;;;8.35;2.45;;;11.90;99.90;;;;;;5013783;28;20048;-61
2022/10/02 01:06:25;;;;;;;11.55;2.55;;;11.80;99.90;;;;;;5029753;28;20140;-61
2022/10/02 01:08:51;;;;;;;12.32;2.35;;;11.80;99.90;;;;;;5013118;28;20052;-62
2022/10/02 01:11:17;;;;;;;12.68;2.67;;;11.80;99.90;;;;;;5037228;28;20033;-62
2022/10/02 01:13:43;;;;;;;9.30;2.63;;;11.80;99.90;;;;;;5030044;28;20117;-61
2022/10/02 01:16:13;;;;;;;11.82;2.92;;;11.80;99.90;;;;;;5030677;28;20124;-63
2022/10/02 01:18:40;;;;;;;13.27;3.30;;;11.80;99.90;;;;;;5028425;28;20061;-65
2022/10/02 01:21:41;;;;;;;16.38;3.10;;;11.90;99.90;;;;;;5018569;28;20045;-62
2022/10/02 01:24:13;;;;;;;15.57;3.55;;;11.90;99.90;;;;;;5036751;28;20086;-62
2022/10/02 01:26:38;;;;;;;8.73;2.65;;;11.90;99.90;;;;;;5036413;28;20037;-61
2022/10/02 01:29:04;;;;;;;12.48;3.75;;;11.90;99.90;;;;;;5029952;28;20091;-62
2022/10/02 01:31:32;;;;;;;11.93;3.08;;;11.90;99.90;;;;;;5012975;28;20049;-65
2022/10/02 01:33:58;;;;;;;14.30;3.33;;;12.00;99.90;;;;;;5034016;28;20036;-61
2022/10/02 01:36:24;;;;;;;15.10;3.25;;;11.90;99.90;;;;;;5025337;28;20041;-64
2022/10/02 01:38:51;;;;;;;12.38;3.05;;;12.00;99.90;;;;;;5031014;28;20040;-66
2022/10/02 01:41:16;;;;;;;12.43;3.03;;;12.00;99.90;;;;;;5033328;28;20046;-62
2022/10/02 01:44:11;;;;;;;13.63;3.15;;;12.00;99.90;;;;;;5031392;28;20065;-64
2022/10/02 01:47:08;;;;;;;12.32;3.13;;;12.00;99.90;;;;;;5025282;28;20049;-62
2022/10/02 01:49:44;;;;;;;12.98;2.67;;;12.00;99.90;;;;;;5020423;28;20297;-61
2022/10/02 01:52:19;;;;;;;12.48;3.25;;;12.00;99.90;;;;;;5016516;28;20099;-62
2022/10/02 01:54:48;;;;;;;12.48;2.75;;;12.00;99.90;;;;;;5011754;28;20041;-62
2022/10/02 01:57:22;;;;;;;16.73;3.40;;;12.00;99.90;;;;;;5009466;28;20080;-61
2022/10/02 01:59:57;;;;;;;16.58;3.20;;;12.00;99.90;;;;;;5029262;28;20041;-62
2022/10/02 02:02:23;;;;;;;11.02;3.03;;;12.00;99.90;;;;;;5011704;28;20041;-64
2022/10/02 02:05:04;;;;;;;17.80;3.22;;;12.00;99.90;;;;;;5030907;28;20048;-62
2022/10/02 02:07:59;;;;;;;14.50;3.33;;;12.00;99.90;;;;;;5012131;28;20041;-61
2022/10/02 02:10:42;;;;;;;13.02;2.90;;;12.00;99.90;;;;;;4999516;28;20064;-64
2022/10/02 02:13:07;;;;;;;15.95;3.90;;;12.00;99.90;;;;;;5011752;28;20114;-62
2022/10/02 02:15:46;;;;;;;12.40;2.80;;;12.00;99.90;;;;;;5009595;28;20493;-62
2022/10/02 02:18:24;;;;;;;12.68;2.70;;;12.00;99.90;;;;;;5007011;28;20053;-62
2022/10/02 02:20:53;;;;;;;14.43;3.03;;;11.90;99.90;;;;;;5032584;28;20041;-61
2022/10/02 02:23:25;;;;;;;8.68;2.90;;;11.90;99.90;;;;;;5028884;28;20057;-65
2022/10/02 02:25:55;;;;;;;13.32;3.15;;;12.00;99.90;;;;;;5015226;28;20045;-61
2022/10/02 02:28:23;;;;;;;13.50;3.63;;;12.00;99.90;;;;;;5049096;28;20045;-66
2022/10/02 02:30:52;;;;;;;10.57;2.78;;;12.00;99.90;;;;;;5049795;28;20079;-63
2022/10/02 02:33:35;;;;;;;10.02;2.47;;;11.90;99.90;;;;;;5045588;28;20045;-63
2022/10/02 02:36:08;;;;;;;10.98;2.05;;;12.00;99.90;;;;;;5049765;28;20040;-62
2022/10/02 02:38:38;;;;;;;9.93;2.60;;;12.00;99.90;;;;;;5048823;28;20040;-64
2022/10/02 02:41:13;;;;;;;12.82;2.50;;;12.00;99.90;;;;;;5053400;28;20056;-64
2022/10/02 02:43:51;;;;;;;9.35;2.03;;;12.00;99.90;;;;;;5048571;28;20059;-62
2022/10/02 02:47:02;;;;;;;7.25;1.95;;;11.90;99.90;;;;;;5048751;28;20037;-62
2022/10/02 02:49:26;;;;;;;9.02;2.10;;;12.00;99.90;;;;;;5048259;28;20143;-62
2022/10/02 02:51:55;;;;;;;7.22;1.98;;;11.90;99.90;;;;;;5050220;28;20036;-62
2022/10/02 02:54:29;;;;;;;8.30;2.08;;;11.90;99.90;;;;;;5047669;28;20045;-63
2022/10/02 02:56:58;;;;;;;11.25;2.40;;;11.90;99.90;;;;;;5044375;28;20033;-64
2022/10/02 02:59:30;;;;;;;8.90;2.25;;;11.80;99.90;;;;;;5048939;28;20063;-61
2022/10/02 03:01:56;;;;;;;8.85;2.40;;;11.90;99.90;;;;;;5054027;28;20048;-62
2022/10/02 03:04:21;;;;;;;7.38;2.15;;;11.90;99.90;;;;;;5041729;28;20049;-62
2022/10/02 03:06:50;;;;;;;9.70;2.20;;;11.90;99.90;;;;;;5044345;28;20033;-63
2022/10/02 03:09:19;;;;;;;9.73;1.92;;;11.90;99.90;;;;;;5047266;28;20049;-62
2022/10/02 03:12:07;;;;;;;8.55;1.88;;;11.90;99.90;;;;;;5046639;28;20040;-62
2022/10/02 03:14:55;;;;;;;8.18;2.08;;;11.90;99.90;;;;;;5047755;28;20505;-61
2022/10/02 03:17:26;;;;;;;8.40;2.55;;;11.90;99.90;;;;;;5046686;28;20068;-62
2022/10/02 03:20:07;;;;;;;7.13;1.55;;;11.80;99.90;;;;;;5059456;28;20037;-61
2022/10/02 03:22:40;;;;;;;9.55;1.80;;;11.80;99.90;;;;;;5046596;28;20127;-62
2022/10/02 03:25:14;;;;;;;11.43;2.10;;;11.80;99.90;;;;;;5046277;28;20125;-62
2022/10/02 03:28:09;;;;;;;12.80;2.13;;;11.80;99.90;;;;;;5040005;28;20047;-62
2022/10/02 03:30:37;;;;;;;10.02;2.45;;;11.80;99.90;;;;;;5038318;28;20436;-62
2022/10/02 03:33:04;;;;;;;9.93;2.20;;;11.80;99.90;;;;;;5050798;28;20045;-63
2022/10/02 03:35:31;;;;;;;7.82;1.90;;;11.80;99.90;;;;;;5046925;28;20116;-62
2022/10/02 03:38:11;;;;;;;8.45;1.85;;;11.80;99.90;;;;;;5047730;28;20045;-62
2022/10/02 03:40:37;;;;;;;10.02;1.98;;;11.70;99.90;;;;;;5047912;28;20033;-63
2022/10/02 03:43:03;;;;;;;11.65;2.20;;;11.70;99.90;;;;;;5047114;28;20106;-66
2022/10/02 03:45:29;;;;;;;10.02;2.22;;;11.80;99.90;;;;;;5047894;28;20081;-62
2022/10/02 03:47:55;;;;;;;11.40;2.35;;;11.70;99.90;;;;;;5047837;28;20048;-63
2022/10/02 03:50:21;;;;;;;10.98;2.30;;;11.80;99.90;;;;;;5051359;28;20041;-62
2022/10/02 03:52:50;;;;;;;13.32;2.67;;;11.70;99.90;;;;;;5050149;28;20043;-63
2022/10/02 03:55:26;;;;;;;10.75;1.95;;;11.70;99.90;;;;;;5048975;28;20033;-64
2022/10/02 03:57:53;;;;;;;12.30;2.15;;;11.80;99.90;;;;;;5066918;28;20032;-64
2022/10/02 04:00:33;;;;;;;10.30;2.65;;;11.70;99.90;;;;;;5045078;28;20087;-62
2022/10/02 04:03:03;;;;;;;12.07;2.55;;;11.70;99.90;;;;;;5046245;28;20139;-65
2022/10/02 04:05:38;;;;;;;11.60;2.40;;;11.70;99.90;;;;;;5047991;28;20508;-62
2022/10/02 04:08:26;;;;;;;10.90;2.38;;;11.70;99.90;;;;;;5053061;28;20526;-65
2022/10/02 04:11:34;;;;;;;13.05;2.58;;;11.70;99.90;;;;;;5041659;28;20128;-65
2022/10/02 04:14:44;;;;;;;13.50;2.67;;;11.70;99.90;;;;;;5030009;28;20504;-62
2022/10/02 04:17:42;;;;;;;10.80;2.53;;;11.70;99.90;;;;;;5030319;28;20501;-64
2022/10/02 04:20:22;;;;;;;12.40;2.65;;;11.60;99.90;;;;;;5051043;28;20055;-64
2022/10/02 04:23:01;;;;;;;14.65;3.17;;;11.60;99.90;;;;;;5048422;28;20045;-64
2022/10/02 04:25:37;;;;;;;15.05;2.63;;;11.60;99.90;;;;;;5046389;28;20507;-64
2022/10/02 04:28:12;;;;;;;13.40;3.40;;;11.60;99.90;;;;;;5032174;28;20433;-64
2022/10/02 04:30:38;;;;;;;14.35;2.97;;;11.70;99.90;;;;;;5030505;28;20580;-64
2022/10/02 04:33:13;;;;;;;12.13;2.50;;;11.60;99.90;;;;;;5010434;28;20121;-64
2022/10/02 04:36:06;;;;;;;16.38;2.90;;;11.60;99.90;;;;;;5014210;28;20288;-64
2022/10/02 04:38:46;;;;;;;;;;;11.60;99.90;;;;;;5030744;28;20043;-64
2022/10/02 04:41:38;;;;;;;15.35;2.72;;;11.60;99.90;;;;;;5028180;28;20385;-64
2022/10/02 04:44:14;;;;;;;9.50;3.00;;;11.60;99.90;;;;;;5012802;28;20048;-63
2022/10/02 04:46:54;;;;;;;13.85;2.80;;;11.60;99.90;;;;;;5032095;28;20484;-64
2022/10/02 04:49:25;;;;;;;14.00;2.90;;;11.60;99.90;;;;;;5013117;28;20081;-63
2022/10/02 04:52:10;;;;;;;14.43;3.00;;;11.60;99.90;;;;;;5026556;28;20030;-64
2022/10/02 04:54:50;;;;;;;13.55;2.80;;;11.60;99.90;;;;;;5011863;28;20613;-62
2022/10/02 04:57:35;;;;;;;9.70;2.88;;;11.60;99.90;;;;;;5030200;28;20563;-64
2022/10/02 05:00:08;;;;;;;12.88;2.65;;;11.60;99.90;;;;;;5026199;28;20037;-64
2022/10/02 05:03:04;;;;;;;10.35;3.00;;;11.60;99.90;;;;;;5026621;28;20042;-64
2022/10/02 05:06:07;;;;;;;17.60;3.38;;;11.60;99.90;;;;;;5030483;28;20069;-65
2022/10/02 05:09:05;;;;;;;10.20;3.72;;;11.60;99.90;;;;;;5011864;28;20091;-64
2022/10/02 05:11:49;;;;;;;15.65;3.38;;;11.50;99.90;;;;;;5003664;28;20140;-64
2022/10/02 05:14:30;;;;;;;14.27;3.00;;;11.50;99.90;;;;;;5025922;28;20052;-62
2022/10/02 05:17:06;;;;;;;17.60;3.40;;;11.50;99.90;;;;;;5024480;28;20124;-64
2022/10/02 05:19:50;;;;;;;13.30;3.28;;;11.50;99.90;;;;;;5030409;28;20048;-65
2022/10/02 05:22:40;;;;;;;13.52;2.72;;;11.50;99.90;;;;;;5008839;28;20045;-64
2022/10/02 05:25:18;;;;;;;15.38;3.35;;;11.50;99.90;;;;;;5011597;28;20077;-64
2022/10/02 05:27:46;;;;;;;15.43;3.42;;;11.50;99.90;;;;;;5009190;28;20064;-64
2022/10/02 05:30:12;;;;;;;16.90;3.92;;;11.50;99.90;;;;;;5025036;28;20037;-64
2022/10/02 05:32:46;;;;;;;12.88;3.28;;;11.50;99.90;;;;;;5029447;28;20059;-64
2022/10/02 05:35:40;;;;;;;16.02;3.28;;;11.50;99.90;;;;;;5032070;28;20049;-65
2022/10/02 05:38:45;;;;;;;12.35;2.97;;;11.50;99.90;;;;;;5028192;28;20056;-65
2022/10/02 05:41:16;;;;;;;15.15;3.35;;;11.50;99.90;;;;;;5009994;28;20057;-64
2022/10/02 05:44:05;;;;;;;12.77;3.10;;;11.50;99.90;;;;;;5014905;28;20045;-63
2022/10/02 05:47:14;;;;;;;18.50;3.30;;;11.50;99.90;;;;;;5012139;28;20037;-64
2022/10/02 05:49:49;;;;;;;17.70;3.53;;;11.50;99.90;;;;;;4911531;29;20122;-64
2022/10/02 05:52:19;;;;;;;14.13;3.30;;;11.50;99.90;;;;;;4895852;29;20076;-65
2022/10/02 05:55:13;;;;;;;17.38;3.80;;;11.50;99.90;;;;;;4981564;28;20405;-64
2022/10/02 05:57:47;;;;;;;15.85;3.13;;;11.50;99.90;;;;;;5030500;28;20489;-64
2022/10/02 06:00:37;;;;;;;12.80;2.58;;;11.50;99.90;;;;;;5012188;28;20042;-64
2022/10/02 06:03:18;;;;;;;13.80;2.83;;;11.50;99.90;;;;;;5009380;28;20096;-65
2022/10/02 06:06:05;;;;;;;13.40;3.13;;;11.50;99.90;;;;;;5024727;28;20485;-65
2022/10/02 06:08:40;;;;;;;15.68;2.90;;;11.50;99.90;;;;;;5021718;28;20041;-64
2022/10/02 06:11:35;;;;;;;11.00;2.97;;;11.50;99.90;;;;;;5030139;28;20120;-63
2022/10/02 06:14:13;;;;;;;18.98;3.03;;;11.50;99.90;;;;;;5017470;28;20136;-64
2022/10/02 06:16:43;;;;;;;14.82;3.42;;;11.60;99.90;;;;;;5011977;28;20041;-64
2022/10/02 06:19:36;;;;;;;15.60;3.50;;;11.60;99.90;;;;;;5028379;28;20041;-64
2022/10/02 06:22:11;;;;;;;17.02;3.42;;;11.60;99.90;;;;;;5011109;28;20069;-64
2022/10/02 06:24:46;;;;;;;20.52;3.75;;;11.60;99.90;;;;;;5028496;28;20573;-64
2022/10/02 06:27:35;;;;;;;19.15;3.50;;;11.60;99.90;;;;;;5027078;28;20038;-64
2022/10/02 06:30:15;;;;;;;17.02;3.35;;;11.70;99.90;;;;;;5018585;28;20176;-64
2022/10/02 06:33:17;;;;;;;16.45;3.70;;;11.70;99.90;;;;;;5016193;28;20096;-64
2022/10/02 06:36:12;;;;;;;18.70;3.58;;;11.80;99.90;;;;;;5004167;28;20375;-62
2022/10/02 06:39:05;;;;;;;12.88;3.10;;;11.80;99.90;;;;;;5024409;28;20048;-64
2022/10/02 06:41:40;;;;;;;13.77;3.05;;;11.80;99.90;;;;;;5029804;28;20124;-63
2022/10/02 06:44:22;;;;;;;12.85;3.40;;;11.90;99.90;;;;;;5011600;28;20401;-63
2022/10/02 06:46:56;;;;;;;16.92;3.63;;;11.90;99.90;;;;;;5025136;28;20064;-64
2022/10/02 06:49:39;;;;;;;12.50;2.90;;;11.90;99.90;;;;;;5029405;28;20171;-64
2022/10/02 06:52:42;;;;;;;17.52;3.67;;;12.00;99.90;;;;;;5027146;28;21473;-62
2022/10/02 06:55:34;;;;;;;19.45;3.70;;;12.00;99.90;;;;;;5025136;28;20239;-65
2022/10/02 06:58:09;;;;;;;14.25;3.40;;;12.00;99.90;;;;;;5007699;28;20072;-64
2022/10/02 07:00:54;;;;;;;14.73;3.28;;;12.10;99.90;;;;;;5022999;28;20057;-65
2022/10/02 07:03:38;;;;;;;13.57;3.08;;;12.20;99.90;;;;;;5016521;28;20045;-65
2022/10/02 07:06:21;;;;;;;15.20;4.28;;;12.20;99.90;;;;;;5007393;28;20045;-63
2022/10/02 07:09:37;;;;;;;19.95;3.25;;;12.30;99.90;;;;;;5002467;28;20041;-63
2022/10/02 07:12:18;;;;;;;17.70;3.35;;;12.30;99.90;;;;;;4941740;28;20057;-64
2022/10/02 07:15:12;;;;;;;14.85;3.42;;;12.30;99.90;;;;;;5001636;28;20128;-65
2022/10/02 07:17:51;;;;;;;12.02;2.90;;;12.40;99.90;;;;;;5008006;28;20037;-65
2022/10/02 07:20:26;;;;;;;15.77;3.15;;;12.40;99.90;;;;;;5026177;28;20047;-65
2022/10/02 07:22:55;;;;;;;16.20;3.10;;;12.40;99.90;;;;;;5027825;28;20120;-65
2022/10/02 07:25:36;;;;;;;16.35;3.35;;;12.50;99.90;;;;;;5025587;28;20124;-64
2022/10/02 07:28:33;;;;;;;13.50;2.97;;;12.50;99.90;;;;;;5008941;28;20048;-63
2022/10/02 07:31:27;;;;;;;11.48;2.75;;;12.60;99.90;;;;;;5007991;28;20049;-65
2022/10/02 07:34:05;;;;;;;11.50;2.63;;;12.70;99.90;;;;;;5028419;28;20056;-65
2022/10/02 07:36:33;;;;;;;13.82;2.90;;;12.90;99.90;;;;;;5027625;28;20127;-65
2022/10/02 07:39:04;;;;;;;17.33;3.80;;;13.00;99.90;;;;;;5025239;28;20049;-64
2022/10/02 07:42:08;;;;;;;15.38;3.22;;;13.10;99.90;;;;;;5008769;28;20037;-64
2022/10/02 07:44:57;;;;;;;17.02;3.10;;;13.20;99.90;;;;;;5010057;28;20124;-65
2022/10/02 07:47:49;;;;;;;12.25;3.08;;;13.30;99.90;;;;;;5009781;28;20120;-65
2022/10/02 07:50:30;;;;;;;15.05;3.08;;;13.30;99.90;;;;;;5028133;28;20049;-65
2022/10/02 07:52:55;;;;;;;14.32;3.33;;;13.40;99.90;;;;;;5029340;28;20450;-65
2022/10/02 07:55:23;;;;;;;16.83;3.40;;;13.40;99.90;;;;;;5028683;28;20064;-63
2022/10/02 07:58:05;;;;;;;13.80;3.33;;;13.40;99.90;;;;;;5016010;28;20044;-64
2022/10/02 08:00:53;;;;;;;15.30;3.43;;;13.50;99.90;;;;;;5036270;28;20695;-65
2022/10/02 08:03:26;;;;;;;12.02;3.17;;;13.50;99.90;;;;;;5024339;28;20682;-65
2022/10/02 08:05:54;;;;;;;16.63;2.65;;;13.60;99.90;;;;;;5032703;28;20493;-65
2022/10/02 08:08:39;;;;;;;18.52;3.20;;;13.60;99.90;;;;;;5033154;28;20410;-64
2022/10/02 08:11:13;;;;;;;10.20;3.08;;;13.60;99.90;;;;;;5014171;28;20055;-64
2022/10/02 08:14:26;;;;;;;12.55;2.90;;;13.60;99.90;;;;;;5012696;28;20489;-65
2022/10/02 08:16:53;;;;;;;12.60;2.67;;;13.60;99.90;;;;;;4952755;29;20044;-65
2022/10/02 08:19:38;;;;;;;15.80;3.42;;;13.60;99.90;;;;;;5017200;28;20056;-63
2022/10/02 08:22:24;;;;;;;10.38;2.90;;;13.60;99.90;;;;;;5032998;28;20490;-65
2022/10/02 08:25:12;;;;;;;17.95;3.15;;;13.60;99.90;;;;;;5027816;28;20033;-65
2022/10/02 08:28:07;;;;;;;10.40;2.53;;;13.60;99.90;;;;;;5033262;28;20556;-64
2022/10/02 08:30:32;;;;;;;18.92;2.80;;;13.70;99.90;;;;;;5015697;28;20054;-65
2022/10/02 08:32:58;;;;;;;8.95;2.30;;;13.70;99.90;;;;;;5034584;28;20624;-65
2022/10/02 08:35:38;;;;;;;12.52;2.70;;;13.70;99.90;;;;;;5032787;28;20061;-62
2022/10/02 08:38:31;;;;;;;9.85;2.40;;;13.80;99.90;;;;;;5018606;28;20053;-63
2022/10/02 08:41:11;;;;;;;11.50;2.80;;;13.80;99.90;;;;;;5014537;28;20041;-65
2022/10/02 08:43:43;;;;;;;10.00;2.50;;;13.90;99.90;;;;;;5027056;28;20440;-63
2022/10/02 08:46:33;;;;;;;13.93;2.95;;;13.90;99.90;;;;;;5032913;28;20521;-65
2022/10/02 08:49:24;;;;;;;14.82;2.75;;;14.00;99.90;;;;;;5014376;28;20043;-65
2022/10/02 08:52:17;;;;;;;11.20;2.75;;;14.00;99.90;;;;;;5030732;28;20044;-65
2022/10/02 08:55:20;;;;;;;16.38;2.72;;;14.00;99.90;;;;;;5033342;28;20432;-65
2022/10/02 08:58:16;;;;;;;13.27;3.00;;;14.10;99.90;;;;;;4989476;28;20119;-65
2022/10/02 09:00:52;;;;;;;19.67;3.33;;;14.10;99.90;;;;;;5013020;28;20060;-65
2022/10/02 09:03:44;;;;;;;11.38;2.92;;;14.20;99.90;;;;;;5029901;28;20037;-65
2022/10/02 09:06:31;;;;;;;16.90;2.88;;;14.20;99.90;;;;;;5031417;28;20041;-65
2022/10/02 09:09:01;;;;;;;13.43;3.00;;;14.30;99.90;;;;;;5024151;28;20049;-65
2022/10/02 09:11:51;;;;;;;12.18;3.10;;;14.30;99.90;;;;;;5017801;28;20585;-64
2022/10/02 09:14:38;;;;;;;14.35;2.90;;;14.40;99.90;;;;;;5014500;28;20044;-63
2022/10/02 09:17:16;;;;;;;14.70;2.63;;;14.40;99.90;;;;;;5034399;28;20401;-65
2022/10/02 09:20:00;;;;;;;13.93;2.58;;;14.50;99.90;;;;;;5031444;28;20056;-65
2022/10/02 09:22:54;;;;;;;9.25;2.58;;;14.50;99.90;;;;;;5010880;28;20041;-63
2022/10/02 09:25:39;;;;;;;9.65;2.88;;;14.60;99.90;;;;;;5005105;28;20049;-65
2022/10/02 09:28:18;;;;;;;16.00;3.08;;;14.60;99.90;;;;;;5014356;28;20514;-62
2022/10/02 09:31:02;;;;;;;13.57;2.55;;;14.60;99.90;;;;;;5012026;28;20049;-64
2022/10/02 09:34:00;;;;;;;15.60;2.75;;;14.70;99.90;;;;;;5031166;28;20052;-63
2022/10/02 09:36:50;;;;;;;13.30;2.60;;;14.70;99.90;;;;;;5013890;28;20405;-65
2022/10/02 09:39:43;;;;;;;15.35;2.92;;;14.70;99.90;;;;;;5010774;28;20525;-62
2022/10/02 09:42:30;;;;;;;9.85;2.85;;;14.70;99.90;;;;;;5028448;28;20132;-61
2022/10/02 09:45:31;;;;;;;13.10;2.72;;;14.70;99.90;;;;;;5013300;28;20048;-63
2022/10/02 09:48:03;;;;;;;13.23;2.92;;;14.70;99.90;;;;;;5026743;28;20032;-62
2022/10/02 09:51:06;;;;;;;12.07;2.35;;;14.70;99.90;;;;;;5013247;28;20386;-61
2022/10/02 09:53:50;;;;;;;;;;;14.80;99.90;;;;;;5014438;28;20068;-64
2022/10/02 09:56:31;;;;;;;10.55;2.03;;;14.90;99.90;;;;;;5029525;28;19917;-63
2022/10/02 09:59:25;;;;;;;10.93;2.50;;;15.00;99.90;;;;;;5011817;28;20042;-64
2022/10/02 10:02:02;;;;;;;11.02;2.78;;;15.10;99.90;;;;;;5031681;28;20041;-63
2022/10/02 10:04:45;;;;;;;20.33;3.20;;;15.20;99.90;;;;;;5013966;28;20040;-61
2022/10/02 10:07:33;;;;;;;12.90;2.60;;;15.20;99.90;;;;;;5031937;28;20053;-63
2022/10/02 10:10:37;;;;;;;10.27;2.40;;;15.30;99.90;;;;;;5026453;28;20099;-65
2022/10/02 10:13:23;;;;;;;11.80;2.25;;;15.40;99.90;;;;;;4951376;29;20532;-67
2022/10/02 10:16:13;;;;;;;11.77;2.30;;;15.50;99.90;;;;;;5008825;28;20061;-67
2022/10/02 10:18:48;;;;;;;9.32;2.25;;;15.60;99.90;;;;;;5024208;28;20042;-62
2022/10/02 10:21:48;;;;;;;16.38;2.65;;;15.80;99.90;;;;;;5010680;28;20120;-61
2022/10/02 10:25:09;;;;;;;10.95;2.28;;;16.00;99.90;;;;;;5013188;28;20437;-62
2022/10/02 10:27:50;;;;;;;14.70;2.50;;;16.20;99.90;;;;;;4978530;28;20064;-65
2022/10/02 10:30:31;;;;;;;9.32;2.35;;;16.40;99.90;;;;;;5010504;28;20056;-62
2022/10/02 10:33:18;;;;;;;9.27;2.35;;;16.60;99.90;;;;;;5005997;28;20093;-62
2022/10/02 10:35:53;;;;;;;11.57;2.38;;;16.70;99.90;;;;;;5007219;28;20451;-69
2022/10/02 10:38:50;;;;;;;10.98;2.10;;;16.60;99.90;;;;;;5013098;28;20052;-62
2022/10/02 10:41:56;;;;;;;8.88;2.13;;;16.50;99.90;;;;;;5012916;28;20041;-63
2022/10/02 10:44:36;;;;;;;10.85;2.05;;;16.50;99.90;;;;;;5012245;28;20057;-64
2022/10/02 10:47:17;;;;;;;10.13;2.50;;;16.50;99.90;;;;;;5030575;28;20041;-62
2022/10/02 10:50:38;;;;;;;8.95;2.33;;;16.50;99.90;;;;;;5026676;28;20048;-62
2022/10/02 10:53:18;;;;;;;11.70;2.33;;;16.70;99.90;;;;;;4985549;28;20045;-65
2022/10/02 10:56:08;;;;;;;10.48;2.75;;;16.90;99.90;;;;;;5029409;28;20171;-68
2022/10/02 10:59:07;;;;;;;11.02;2.28;;;17.10;99.90;;;;;;5022372;28;20033;-63
2022/10/02 11:02:02;;;;;;;13.18;2.47;;;17.30;99.90;;;;;;4996886;28;20057;-63
2022/10/02 11:04:39;;;;;;;10.52;2.20;;;17.40;99.90;;;;;;4999131;28;20045;-62
2022/10/02 11:07:33;;;;;;;10.95;2.58;;;17.30;99.90;;;;;;5012993;28;20070;-62
2022/10/02 11:10:53;;;;;;;9.77;2.28;;;17.20;99.90;;;;;;5002968;28;20045;-62
2022/10/02 11:13:33;;;;;;;8.82;1.95;;;17.10;99.90;;;;;;4951060;28;20057;-62
2022/10/02 11:16:39;;;;;;;8.57;2.30;;;16.90;99.90;;;;;;5029751;28;20520;-62
2022/10/02 11:19:25;;;;;;;11.18;2.28;;;16.80;99.90;;;;;;4996142;28;20101;-63
2022/10/02 11:22:00;;;;;;;8.68;2.00;;;16.60;99.90;;;;;;5018538;28;20041;-63
2022/10/02 11:24:44;;;;;;;12.90;2.13;;;16.50;99.90;;;;;;5014666;28;20083;-62
2022/10/02 11:27:33;;;;;;;10.95;2.30;;;16.30;99.90;;;;;;5027058;28;20493;-62
2022/10/02 11:30:13;;;;;;;12.55;2.50;;;16.20;99.90;;;;;;5021615;28;20047;-65
2022/10/02 11:33:03;;;;;;;10.23;2.40;;;16.20;99.90;;;;;;5025616;28;20535;-63
2022/10/02 11:35:49;;;;;;;8.32;2.58;;;16.10;99.90;;;;;;5011919;28;20055;-64
2022/10/02 11:38:34;;;;;;;12.02;2.53;;;16.20;99.90;;;;;;5027507;28;20041;-64
2022/10/02 11:41:38;;;;;;;15.63;2.92;;;16.40;99.90;;;;;;5028531;28;20041;-64
2022/10/02 11:44:36;;;;;;;13.65;2.75;;;16.60;99.90;;;;;;5008477;28;20461;-63
2022/10/02 11:47:10;;;;;;;12.70;2.35;;;16.70;99.90;;;;;;5025213;28;20045;-64
2022/10/02 11:50:00;;;;;;;12.27;2.30;;;17.00;99.90;;;;;;5024603;28;20497;-63
2022/10/02 11:52:51;;;;;;;9.18;2.30;;;17.20;99.90;;;;;;5011630;28;20545;-63
2022/10/02 11:55:21;;;;;;;9.55;2.13;;;17.40;99.90;;;;;;5017935;28;20127;-64
2022/10/02 11:57:55;;;;;;;12.30;2.35;;;17.60;99.90;;;;;;5011781;28;20041;-64
2022/10/02 12:00:40;;;;;;;10.82;2.45;;;17.70;99.90;;;;;;5029040;28;20114;-64
2022/10/02 12:03:19;;;;;;;15.15;2.38;;;17.90;99.90;;;;;;5019874;28;20077;-66
2022/10/02 12:05:56;;;;;;;11.05;2.63;;;18.00;99.90;;;;;;5021491;28;20144;-63
2022/10/02 12:09:00;;;;;;;8.43;2.00;;;18.10;99.90;;;;;;5010777;28;20085;-64
2022/10/02 12:11:47;;;;;;;12.65;2.15;;;17.90;99.90;;;;;;5010672;28;20052;-65
2022/10/02 12:14:57;;;;;;;11.38;2.45;;;17.80;99.90;;;;;;5011590;28;20065;-63
2022/10/02 12:17:52;;;;;;;11.73;2.50;;;17.60;99.90;;;;;;5011457;28;20551;-63
2022/10/02 12:27:09;;;;;;;11.27;2.33;;;17.40;99.90;;;;;;5024218;28;20045;-64
2022/10/02 12:29:39;;;;;;;14.23;2.72;;;17.50;99.90;;;;;;5018502;28;20045;-64
2022/10/02 12:32:27;;;;;;;14.38;3.03;;;17.60;99.90;;;;;;5029483;28;20046;-64
2022/10/02 12:35:20;;;;;;;10.13;2.40;;;17.70;99.90;;;;;;5024004;28;20044;-64
2022/10/02 12:38:06;;;;;;;10.38;2.10;;;17.80;99.90;;;;;;5028637;28;21127;-64
2022/10/02 12:40:44;;;;;;;12.55;2.45;;;17.80;99.90;;;;;;5011219;28;20041;-64
2022/10/02 12:43:27;;;;;;;9.93;2.20;;;17.90;99.90;;;;;;5033391;28;20516;-64
2022/10/02 12:46:18;;;;;;;8.07;2.25;;;18.00;99.90;;;;;;5017973;28;20063;-64
2022/10/02 12:48:57;;;;;;;9.88;2.20;;;18.00;99.90;;;;;;5040088;28;20033;-64
2022/10/02 12:51:33;;;;;;;9.43;1.90;;;18.00;99.90;;;;;;5042976;28;20398;-64
2022/10/02 12:54:17;;;;;;;9.07;2.13;;;18.10;99.90;;;;;;5023480;28;20037;-64
2022/10/02 12:56:44;;;;;;;8.05;2.25;;;18.10;99.90;;;;;;5006931;28;20041;-66
2022/10/02 12:59:28;;;;;;;8.93;2.65;;;18.10;99.90;;;;;;5014192;28;20048;-66
2022/10/02 13:02:17;;;;;;;8.00;2.10;;;18.10;99.90;;;;;;5027932;28;20042;-64
2022/10/02 13:05:17;;;;;;;9.65;2.38;;;18.00;99.90;;;;;;5015344;28;20037;-64
2022/10/02 13:08:01;;;;;;;12.57;2.13;;;18.00;99.90;;;;;;5031400;28;20349;-64
2022/10/02 13:10:29;;;;;;;8.30;1.98;;;17.90;99.90;;;;;;5015284;28;20132;-64
2022/10/02 13:13:15;;;;;;;10.40;2.13;;;17.80;99.90;;;;;;5015129;28;20172;-64
2022/10/02 13:15:55;;;;;;;9.52;2.67;;;17.80;99.90;;;;;;5013353;28;20038;-64
2022/10/02 13:18:51;;;;;;;6.05;1.95;;;17.80;99.90;;;;;;5014995;28;20068;-64
2022/10/02 13:21:40;;;;;;;7.18;2.10;;;17.80;99.90;;;;;;5012231;28;20524;-64
2022/10/02 13:24:43;;;;;;;9.70;2.60;;;17.80;99.90;;;;;;5032264;28;20064;-63
2022/10/02 13:27:21;;;;;;;9.23;2.22;;;17.80;99.90;;;;;;5028848;28;20048;-64
2022/10/02 13:30:09;;;;;;;9.90;2.28;;;17.90;99.90;;;;;;5012685;28;20049;-64
2022/10/02 13:32:39;;;;;;;7.70;2.03;;;18.00;99.90;;;;;;5028092;28;20401;-64
2022/10/02 13:35:19;;;;;;;8.23;2.03;;;17.90;99.90;;;;;;5032429;28;20390;-64
2022/10/02 13:38:00;;;;;;;11.25;2.50;;;17.90;99.90;;;;;;5015806;28;20047;-64
2022/10/02 13:40:55;;;;;;;7.32;1.70;;;17.60;99.90;;;;;;5013476;28;20045;-65
2022/10/02 13:43:33;;;;;;;13.35;2.53;;;17.50;99.90;;;;;;5030994;28;20088;-64
2022/10/02 13:46:18;;;;;;;8.30;1.95;;;17.50;99.90;;;;;;5022997;28;20041;-64
2022/10/02 13:48:47;;;;;;;12.88;2.42;;;17.50;99.90;;;;;;5025148;28;20235;-64
2022/10/02 13:51:17;;;;;;;11.02;2.00;;;17.50;99.90;;;;;;5037274;28;20516;-64
2022/10/02 13:53:46;;;;;;;11.50;2.55;;;17.50;99.90;;;;;;5013864;28;20466;-64
2022/10/02 13:56:31;;;;;;;9.63;1.88;;;17.50;99.90;;;;;;5011889;28;20398;-63
2022/10/02 13:59:24;;;;;;;9.98;2.20;;;17.50;99.90;;;;;;5030715;28;20048;-65
2022/10/02 14:02:09;;;;;;;9.93;2.00;;;17.60;99.90;;;;;;5013853;28;20041;-64
2022/10/02 14:04:46;;;;;;;8.75;2.33;;;17.60;99.90;;;;;;5008541;28;20045;-64